createdAt,value
2022-12-18T00:01:25.421Z,9.40
2022-12-18T00:03:54.364Z,9.00
2022-12-18T00:06:22.475Z,9.50
2022-12-18T00:08:49.781Z,10.93
2022-12-18T00:11:19.997Z,10.52
2022-12-18T00:13:47.437Z,11.18
2022-12-18T00:16:21.657Z,9.85
2022-12-18T00:18:50.730Z,11.40
2022-12-18T00:21:18.283Z,12.47
2022-12-18T00:23:46.288Z,11.18
2022-12-18T00:26:16.208Z,10.95
2022-12-18T00:28:44.123Z,7.68
2022-12-18T00:31:14.666Z,7.90
2022-12-18T00:33:42.240Z,9.00
2022-12-18T00:36:18.956Z,9.60
2022-12-18T00:38:46.780Z,10.43
2022-12-18T00:41:35.768Z,10.48
2022-12-18T00:44:03.659Z,9.82
2022-12-18T00:46:31.240Z,10.18
2022-12-18T00:48:58.428Z,9.52
2022-12-18T00:51:27.448Z,8.90
2022-12-18T00:53:54.729Z,9.97
2022-12-18T00:56:22.021Z,9.88
2022-12-18T00:58:49.556Z,11.43
2022-12-18T01:01:17.400Z,9.77
2022-12-18T01:03:46.164Z,9.60
2022-12-18T01:06:14.928Z,9.55
2022-12-18T01:08:42.316Z,9.23
2022-12-18T01:11:14.742Z,8.87
2022-12-18T01:13:42.307Z,8.32
2022-12-18T01:16:11.930Z,8.63
2022-12-18T01:18:39.360Z,8.57
2022-12-18T01:21:11.189Z,8.13
2022-12-18T01:23:39.052Z,8.40
2022-12-18T01:26:11.957Z,8.07
2022-12-18T01:28:39.186Z,8.70
2022-12-18T01:31:28.555Z,8.68
2022-12-18T01:33:56.582Z,7.50
2022-12-18T01:36:35.337Z,8.13
2022-12-18T01:39:05.673Z,8.18
2022-12-18T01:41:53.353Z,9.70
2022-12-18T01:44:51.485Z,7.60
2022-12-18T01:47:28.533Z,7.00
2022-12-18T01:49:57.897Z,7.43
2022-12-18T01:52:27.260Z,7.63
2022-12-18T01:54:55.526Z,7.85
2022-12-18T01:57:23.995Z,7.05
2022-12-18T01:59:54.653Z,8.80
2022-12-18T02:02:22.347Z,8.32
2022-12-18T02:04:49.834Z,8.52
2022-12-18T02:07:43.246Z,7.93
2022-12-18T02:10:28.234Z,8.38
2022-12-18T02:13:14.474Z,7.53
2022-12-18T02:16:03.869Z,7.45
2022-12-18T02:18:36.658Z,7.97
2022-12-18T02:21:23.138Z,8.00
2022-12-18T02:24:32.854Z,8.13
2022-12-18T02:27:06.886Z,7.40
2022-12-18T02:29:44.652Z,7.10
2022-12-18T02:32:17.507Z,7.03
2022-12-18T02:34:46.986Z,6.50
2022-12-18T02:37:18.572Z,7.27
2022-12-18T02:39:49.107Z,7.13
2022-12-18T02:42:17.562Z,6.40
2022-12-18T02:44:50.179Z,6.40
2022-12-18T02:47:21.196Z,6.65
2022-12-18T02:50:10.754Z,6.45
2022-12-18T02:52:43.991Z,6.20
2022-12-18T02:55:27.150Z,6.00
2022-12-18T02:57:59.415Z,6.15
2022-12-18T03:00:43.805Z,6.03
2022-12-18T03:03:15.672Z,6.50
2022-12-18T03:05:46.787Z,6.80
2022-12-18T03:08:20.135Z,5.65
2022-12-18T03:10:53.561Z,5.93
2022-12-18T03:13:32.901Z,6.20
2022-12-18T03:16:01.334Z,5.80
2022-12-18T03:18:37.907Z,5.75
2022-12-18T03:21:08.752Z,5.70
2022-12-18T03:23:45.847Z,6.25
2022-12-18T03:26:18.259Z,5.70
2022-12-18T03:28:51.048Z,6.17
2022-12-18T03:31:21.291Z,5.85
2022-12-18T03:33:56.836Z,6.80
2022-12-18T03:36:24.632Z,5.80
2022-12-18T03:38:52.280Z,6.70
2022-12-18T03:41:33.627Z,7.17
2022-12-18T03:44:12.606Z,6.90
2022-12-18T03:46:58.092Z,7.63
2022-12-18T03:49:37.440Z,7.47
2022-12-18T03:52:17.720Z,7.33
2022-12-18T03:54:46.464Z,7.50
2022-12-18T03:57:23.388Z,6.53
2022-12-18T03:59:58.304Z,5.93
2022-12-18T04:02:26.195Z,6.50
2022-12-18T04:04:57.677Z,6.25
2022-12-18T04:07:25.541Z,6.50
2022-12-18T04:09:57.420Z,6.17
2022-12-18T04:12:29.785Z,6.93
2022-12-18T04:14:56.915Z,6.45
2022-12-18T04:17:24.703Z,5.80
2022-12-18T04:19:51.769Z,5.53
2022-12-18T04:22:18.877Z,5.20
2022-12-18T04:24:45.943Z,5.45
2022-12-18T04:27:13.426Z,5.72
2022-12-18T04:29:40.649Z,5.50
2022-12-18T04:32:08.569Z,5.50
2022-12-18T04:34:35.629Z,5.07
2022-12-18T04:37:02.865Z,5.43
2022-12-18T04:39:29.915Z,5.30
2022-12-18T04:41:57.019Z,5.30
2022-12-18T04:44:24.262Z,5.25
2022-12-18T04:46:51.349Z,5.30
2022-12-18T04:49:18.489Z,4.97
2022-12-18T04:51:45.513Z,5.03
2022-12-18T04:54:12.567Z,6.75
2022-12-18T04:56:39.806Z,5.40
2022-12-18T04:59:06.947Z,5.60
2022-12-18T05:01:35.650Z,5.13
2022-12-18T05:04:03.728Z,5.00
2022-12-18T05:06:30.846Z,5.20
2022-12-18T05:08:58.317Z,5.13
2022-12-18T05:11:25.384Z,4.68
2022-12-18T05:13:52.448Z,4.68
2022-12-18T05:16:19.664Z,4.90
2022-12-18T05:18:46.824Z,6.90
2022-12-18T05:21:13.894Z,5.15
2022-12-18T05:23:41.277Z,4.85
2022-12-18T05:26:09.794Z,5.20
2022-12-18T05:28:37.327Z,4.72
2022-12-18T05:31:05.586Z,4.80
2022-12-18T05:33:34.955Z,5.28
2022-12-18T05:36:03.558Z,5.88
2022-12-18T05:38:32.423Z,5.25
2022-12-18T05:40:59.808Z,5.30
2022-12-18T05:43:28.091Z,5.20
2022-12-18T05:45:55.490Z,7.05
2022-12-18T05:48:22.899Z,6.47
2022-12-18T05:50:51.142Z,6.30
2022-12-18T05:53:20.228Z,6.13
2022-12-18T05:55:47.472Z,5.55
2022-12-18T05:58:15.243Z,6.90
2022-12-18T06:00:45.068Z,5.50
2022-12-18T06:03:12.899Z,5.07
2022-12-18T06:05:45.681Z,5.50
2022-12-18T06:08:14.050Z,5.07
2022-12-18T06:10:41.965Z,5.45
2022-12-18T06:13:09.523Z,5.00
2022-12-18T06:15:39.829Z,5.15
2022-12-18T06:18:06.907Z,4.60
2022-12-18T06:20:34.553Z,4.60
2022-12-18T06:23:01.663Z,4.95
2022-12-18T06:25:28.728Z,5.03
2022-12-18T06:27:55.799Z,6.88
2022-12-18T06:30:23.096Z,6.00
2022-12-18T06:32:56.324Z,5.30
2022-12-18T06:35:27.007Z,5.47
2022-12-18T06:37:54.040Z,4.40
2022-12-18T06:40:21.425Z,4.85
2022-12-18T06:42:48.502Z,5.20
2022-12-18T06:45:15.701Z,6.07
2022-12-18T06:47:42.782Z,4.85
2022-12-18T06:50:10.249Z,5.78
2022-12-18T06:52:37.754Z,6.47
2022-12-18T06:55:05.543Z,5.85
2022-12-18T06:57:32.609Z,5.63
2022-12-18T06:59:59.653Z,6.75
2022-12-18T07:02:26.816Z,7.07
2022-12-18T07:04:53.909Z,6.80
2022-12-18T07:07:20.957Z,5.63
2022-12-18T07:09:48.019Z,5.45
2022-12-18T07:12:15.093Z,5.25
2022-12-18T07:14:42.165Z,5.00
2022-12-18T07:17:09.351Z,5.28
2022-12-18T07:19:36.530Z,4.90
2022-12-18T07:22:03.599Z,4.80
2022-12-18T07:24:33.041Z,5.00
2022-12-18T07:27:00.089Z,4.75
2022-12-18T07:29:27.193Z,4.47
2022-12-18T07:31:54.356Z,4.78
2022-12-18T07:34:21.529Z,5.07
2022-12-18T07:36:48.651Z,6.90
2022-12-18T07:39:15.766Z,7.32
2022-12-18T07:41:47.381Z,5.88
2022-12-18T07:44:14.715Z,6.43
2022-12-18T07:46:41.801Z,6.55
2022-12-18T07:49:08.938Z,6.28
2022-12-18T07:51:35.986Z,5.90
2022-12-18T07:54:03.059Z,5.90
2022-12-18T07:56:31.443Z,6.43
2022-12-18T07:58:59.743Z,5.63
2022-12-18T08:01:27.933Z,5.30
2022-12-18T08:03:55.234Z,4.88
2022-12-18T08:06:24.124Z,4.38
2022-12-18T08:08:56.433Z,4.67
2022-12-18T08:11:26.434Z,4.80
2022-12-18T08:13:53.607Z,4.70
2022-12-18T08:16:21.658Z,4.68
2022-12-18T08:18:49.516Z,5.00
2022-12-18T08:21:25.668Z,8.90
2022-12-18T08:23:54.571Z,6.75
2022-12-18T08:26:22.644Z,7.55
2022-12-18T08:28:51.160Z,11.55
2022-12-18T08:31:19.531Z,10.93
2022-12-18T08:33:50.277Z,7.82
2022-12-18T08:36:18.039Z,7.85
2022-12-18T08:38:45.075Z,6.85
2022-12-18T08:41:13.871Z,7.00
2022-12-18T08:44:00.041Z,7.03
2022-12-18T08:46:32.159Z,7.28
2022-12-18T08:48:59.321Z,6.28
2022-12-18T08:51:26.579Z,6.53
2022-12-18T08:53:53.651Z,7.10
2022-12-18T08:56:20.722Z,5.85
2022-12-18T08:58:47.781Z,7.80
2022-12-18T09:01:15.114Z,7.10
2022-12-18T09:03:42.834Z,6.93
2022-12-18T09:06:10.275Z,6.97
2022-12-18T09:08:40.487Z,6.85
2022-12-18T09:11:26.698Z,6.60
2022-12-18T09:13:56.105Z,7.18
2022-12-18T09:16:30.319Z,6.45
2022-12-18T09:19:02.810Z,6.15
2022-12-18T09:21:34.792Z,6.78
2022-12-18T09:24:04.346Z,6.57
2022-12-18T09:26:32.337Z,5.97
2022-12-18T09:28:59.377Z,6.03
2022-12-18T09:31:26.577Z,5.80
2022-12-18T09:33:55.334Z,5.90
2022-12-18T09:36:22.379Z,5.97
2022-12-18T09:38:49.417Z,6.00
2022-12-18T09:41:54.437Z,5.77
2022-12-18T09:44:28.741Z,6.10
2022-12-18T09:47:13.955Z,5.85
2022-12-18T09:49:46.501Z,6.30
2022-12-18T09:52:31.402Z,5.97
2022-12-18T09:55:11.629Z,6.50
2022-12-18T09:57:46.106Z,6.70
2022-12-18T10:00:19.958Z,8.57
2022-12-18T10:02:47.841Z,7.90
2022-12-18T10:05:18.438Z,8.55
2022-12-18T10:07:58.274Z,8.40
2022-12-18T10:10:31.522Z,9.52
2022-12-18T10:13:16.512Z,9.20
2022-12-18T10:15:53.025Z,9.07
2022-12-18T10:18:29.370Z,8.98
2022-12-18T10:21:04.636Z,7.80
2022-12-18T10:23:48.199Z,7.40
2022-12-18T10:26:15.762Z,7.60
2022-12-18T10:28:45.197Z,6.85
2022-12-18T10:31:21.163Z,7.78
2022-12-18T10:33:54.575Z,7.00
2022-12-18T10:36:24.805Z,7.40
2022-12-18T10:38:52.713Z,7.00
2022-12-18T10:41:20.026Z,6.97
2022-12-18T10:43:49.355Z,6.00
2022-12-18T10:46:21.868Z,6.93
2022-12-18T10:48:53.800Z,7.23
2022-12-18T10:51:34.459Z,6.50
2022-12-18T10:54:16.833Z,7.15
2022-12-18T10:56:44.838Z,8.55
2022-12-18T10:59:16.246Z,7.47
2022-12-18T11:01:58.681Z,7.53
2022-12-18T11:04:31.939Z,7.57
2022-12-18T11:07:09.404Z,6.70
2022-12-18T11:09:38.040Z,7.35
2022-12-18T11:12:17.711Z,7.17
2022-12-18T11:14:51.347Z,6.95
2022-12-18T11:17:31.410Z,6.88
2022-12-18T11:20:00.857Z,6.65
2022-12-18T11:22:30.372Z,6.30
2022-12-18T11:25:33.509Z,6.00
2022-12-18T11:28:05.900Z,6.38
2022-12-18T11:30:35.556Z,6.65
2022-12-18T11:33:22.656Z,6.10
2022-12-18T11:35:53.757Z,6.18
2022-12-18T11:38:27.039Z,6.50
2022-12-18T11:41:06.143Z,7.53
2022-12-18T11:43:45.040Z,8.27
2022-12-18T11:46:19.986Z,9.20
2022-12-18T11:48:57.804Z,25.42
2022-12-18T11:51:44.292Z,16.80
2022-12-18T11:54:15.155Z,16.30
2022-12-18T11:57:17.333Z,18.08
2022-12-18T12:00:02.338Z,16.95
2022-12-18T12:02:53.379Z,16.70
2022-12-18T12:05:32.018Z,16.93
2022-12-18T12:08:23.980Z,16.52
2022-12-18T12:11:04.401Z,18.25
2022-12-18T12:13:49.708Z,21.55
2022-12-18T12:16:32.447Z,16.63
2022-12-18T12:19:16.505Z,13.63
2022-12-18T12:21:54.641Z,12.07
2022-12-18T12:24:50.460Z,11.37
2022-12-18T12:27:43.856Z,13.70
2022-12-18T12:30:22.104Z,9.82
2022-12-18T12:32:57.173Z,14.80
2022-12-18T12:36:07.949Z,17.98
2022-12-18T12:38:45.660Z,8.40
2022-12-18T12:41:49.117Z,14.07
2022-12-18T12:44:23.047Z,10.50
2022-12-18T12:46:56.057Z,11.32
2022-12-18T12:49:29.710Z,10.77
2022-12-18T12:52:04.492Z,12.25
2022-12-18T12:54:33.655Z,9.07
2022-12-18T12:57:10.462Z,7.20
2022-12-18T12:59:50.927Z,6.90
2022-12-18T13:02:32.219Z,7.70
2022-12-18T13:05:04.681Z,7.32
2022-12-18T13:07:42.573Z,7.82
2022-12-18T13:10:20.598Z,8.55
2022-12-18T13:12:56.575Z,11.50
2022-12-18T13:15:27.129Z,10.23
2022-12-18T13:18:21.517Z,8.83
2022-12-18T13:21:19.792Z,10.75
2022-12-18T13:23:47.270Z,14.00
2022-12-18T13:26:17.171Z,11.57
2022-12-18T13:28:47.015Z,14.60
2022-12-18T13:31:42.550Z,8.13
2022-12-18T13:34:27.442Z,6.30
2022-12-18T13:37:17.566Z,5.85
2022-12-18T13:39:44.842Z,6.50
2022-12-18T13:42:31.912Z,8.85
2022-12-18T13:44:59.234Z,10.23
2022-12-18T13:47:41.123Z,17.85
2022-12-18T13:50:27.716Z,28.38
2022-12-18T13:52:59.675Z,24.45
2022-12-18T13:55:27.496Z,26.60
2022-12-18T13:58:05.953Z,20.55
2022-12-18T14:00:33.105Z,25.00
2022-12-18T14:03:01.422Z,16.15
2022-12-18T14:05:32.339Z,25.65
2022-12-18T14:08:07.048Z,23.02
2022-12-18T14:10:48.399Z,20.30
2022-12-18T14:13:28.993Z,20.23
2022-12-18T14:15:57.784Z,14.02
2022-12-18T14:18:55.317Z,16.40
2022-12-18T14:21:27.714Z,16.15
2022-12-18T14:24:19.689Z,15.02
2022-12-18T14:26:50.510Z,13.75
2022-12-18T14:29:31.750Z,12.20
2022-12-18T14:32:16.544Z,12.82
2022-12-18T14:34:55.047Z,13.85
2022-12-18T14:37:27.881Z,13.20
2022-12-18T14:40:10.662Z,12.40
2022-12-18T14:42:38.641Z,12.10
2022-12-18T14:45:43.134Z,11.80
2022-12-18T14:48:35.572Z,11.27
2022-12-18T14:51:11.668Z,11.13
2022-12-18T14:53:44.527Z,9.75
2022-12-18T14:56:21.373Z,10.40
2022-12-18T14:59:01.708Z,9.95
2022-12-18T15:01:38.369Z,9.63
2022-12-18T15:04:23.318Z,9.98
2022-12-18T15:07:05.577Z,9.73
2022-12-18T15:09:32.785Z,9.68
2022-12-18T15:12:02.081Z,10.10
2022-12-18T15:14:40.977Z,9.30
2022-12-18T15:17:20.694Z,9.83
2022-12-18T15:19:49.915Z,10.02
2022-12-18T15:22:21.505Z,8.63
2022-12-18T15:24:50.163Z,9.60
2022-12-18T15:27:25.258Z,8.93
2022-12-18T15:30:01.722Z,8.80
2022-12-18T15:32:28.759Z,9.25
2022-12-18T15:35:16.785Z,8.73
2022-12-18T15:37:44.510Z,8.90
2022-12-18T15:40:17.447Z,9.07
2022-12-18T15:43:03.895Z,8.57
2022-12-18T15:45:31.057Z,8.60
2022-12-18T15:47:58.223Z,8.07
2022-12-18T15:50:26.010Z,7.85
2022-12-18T15:52:56.359Z,7.80
2022-12-18T15:55:43.831Z,7.40
2022-12-18T15:58:12.949Z,7.13
2022-12-18T16:00:41.610Z,7.68
2022-12-18T16:03:10.689Z,6.78
2022-12-18T16:05:38.035Z,7.47
2022-12-18T16:08:05.168Z,6.90
2022-12-18T16:10:32.283Z,6.63
2022-12-18T16:12:59.407Z,6.82
2022-12-18T16:15:26.512Z,7.25
2022-12-18T16:17:53.683Z,7.10
2022-12-18T16:20:22.708Z,6.80
2022-12-18T16:22:50.565Z,7.00
2022-12-18T16:25:27.687Z,7.50
2022-12-18T16:27:56.135Z,7.03
2022-12-18T16:30:27.207Z,6.80
2022-12-18T16:32:56.043Z,6.70
2022-12-18T16:35:25.685Z,7.18
2022-12-18T16:37:53.108Z,7.47
2022-12-18T16:40:20.576Z,7.72
2022-12-18T16:42:47.667Z,6.65
2022-12-18T16:45:17.227Z,6.22
2022-12-18T16:47:44.860Z,6.10
2022-12-18T16:50:12.604Z,6.18
2022-12-18T16:52:40.079Z,7.05
2022-12-18T16:55:07.886Z,6.20
2022-12-18T16:57:35.011Z,5.93
2022-12-18T17:00:05.689Z,6.38
2022-12-18T17:02:33.492Z,5.90
2022-12-18T17:05:00.861Z,6.35
2022-12-18T17:07:28.760Z,5.78
2022-12-18T17:09:56.187Z,9.43
2022-12-18T17:12:23.909Z,6.20
2022-12-18T17:14:50.993Z,7.53
2022-12-18T17:17:21.776Z,6.80
2022-12-18T17:19:51.104Z,6.68
2022-12-18T17:22:18.684Z,6.32
2022-12-18T17:24:47.126Z,6.30
2022-12-18T17:27:14.379Z,6.37
2022-12-18T17:29:47.345Z,6.38
2022-12-18T17:32:17.074Z,6.85
2022-12-18T17:34:44.215Z,6.68
2022-12-18T17:37:11.348Z,6.50
2022-12-18T17:39:38.819Z,6.75
2022-12-18T17:42:06.703Z,7.38
2022-12-18T17:44:35.049Z,7.82
2022-12-18T17:47:02.831Z,8.23
2022-12-18T17:49:30.919Z,7.95
2022-12-18T17:51:57.960Z,7.75
2022-12-18T17:54:25.013Z,7.88
2022-12-18T17:56:52.065Z,6.32
2022-12-18T17:59:19.132Z,6.35
2022-12-18T18:01:46.469Z,6.23
2022-12-18T18:04:14.566Z,5.95
2022-12-18T18:06:41.744Z,6.10
2022-12-18T18:09:15.934Z,5.80
2022-12-18T18:12:05.390Z,6.20
2022-12-18T18:14:32.981Z,5.68
2022-12-18T18:17:04.706Z,5.55
2022-12-18T18:19:33.401Z,5.93
2022-12-18T18:22:01.363Z,5.80
2022-12-18T18:24:28.482Z,6.30
2022-12-18T18:26:55.643Z,5.50
2022-12-18T18:29:26.642Z,5.25
2022-12-18T18:31:54.927Z,5.50
2022-12-18T18:34:24.571Z,5.38
2022-12-18T18:36:51.869Z,5.93
2022-12-18T18:39:19.484Z,5.70
2022-12-18T18:41:47.868Z,5.63
2022-12-18T18:44:16.862Z,5.60
2022-12-18T18:46:44.561Z,5.63
2022-12-18T18:49:13.522Z,6.13
2022-12-18T18:51:41.507Z,6.67
2022-12-18T18:54:09.263Z,6.63
2022-12-18T18:59:31.198Z,6.93
2022-12-18T19:02:04.017Z,6.80
2022-12-18T19:04:33.622Z,7.20
2022-12-18T19:07:01.069Z,7.55
2022-12-18T19:09:28.602Z,7.05
2022-12-18T19:12:14.913Z,8.60
2022-12-18T19:14:42.699Z,8.88
2022-12-18T19:17:10.344Z,8.30
2022-12-18T19:19:37.576Z,8.03
2022-12-18T19:22:07.669Z,8.40
2022-12-18T19:24:35.975Z,8.30
2022-12-18T19:27:03.091Z,7.63
2022-12-18T19:29:30.283Z,8.45
2022-12-18T19:31:57.576Z,8.30
2022-12-18T19:34:24.740Z,8.45
2022-12-18T19:36:56.512Z,7.80
2022-12-18T19:39:26.633Z,7.57
2022-12-18T19:41:53.705Z,7.63
2022-12-18T19:44:21.332Z,8.65
2022-12-18T19:46:51.388Z,8.30
2022-12-18T19:49:21.248Z,9.30
2022-12-18T19:51:50.448Z,8.40
2022-12-18T19:54:17.966Z,7.97
2022-12-18T19:56:45.940Z,8.60
2022-12-18T19:59:13.975Z,7.80
2022-12-18T20:01:41.392Z,8.80
2022-12-18T20:04:09.190Z,8.80
2022-12-18T20:06:47.703Z,8.93
2022-12-18T20:09:14.893Z,8.38
2022-12-18T20:11:42.709Z,7.60
2022-12-18T20:14:12.012Z,7.68
2022-12-18T20:16:39.941Z,7.65
2022-12-18T20:19:07.665Z,7.07
2022-12-18T20:21:34.937Z,7.22
2022-12-18T20:24:02.097Z,7.05
2022-12-18T20:26:29.415Z,6.70
2022-12-18T20:28:56.683Z,6.78
2022-12-18T20:31:24.340Z,6.60
2022-12-18T20:33:53.332Z,6.70
2022-12-18T20:36:25.969Z,6.57
2022-12-18T20:38:56.991Z,6.32
2022-12-18T20:41:25.409Z,5.80
2022-12-18T20:43:52.477Z,6.65
2022-12-18T20:46:20.357Z,5.97
2022-12-18T20:48:48.117Z,6.50
2022-12-18T20:51:17.939Z,6.78
2022-12-18T20:53:46.467Z,7.10
2022-12-18T20:56:18.900Z,6.70
2022-12-18T20:58:50.541Z,7.60
2022-12-18T21:01:23.229Z,7.53
2022-12-18T21:03:51.350Z,7.75
2022-12-18T21:06:20.633Z,7.53
2022-12-18T21:08:48.503Z,7.63
2022-12-18T21:11:44.349Z,7.40
2022-12-18T21:14:17.845Z,8.00
2022-12-18T21:16:45.522Z,7.93
2022-12-18T21:19:16.159Z,7.83
2022-12-18T21:21:43.859Z,7.35
2022-12-18T21:24:11.735Z,7.75
2022-12-18T21:26:45.799Z,8.80
2022-12-18T21:29:17.631Z,8.50
2022-12-18T21:31:45.375Z,8.80
2022-12-18T21:34:21.670Z,9.02
2022-12-18T21:36:49.383Z,8.80
2022-12-18T21:39:17.073Z,8.45
2022-12-18T21:42:03.872Z,9.40
2022-12-18T21:44:31.032Z,9.30
2022-12-18T21:47:20.824Z,8.63
2022-12-18T21:49:50.478Z,7.82
2022-12-18T21:52:17.606Z,7.90
2022-12-18T21:54:44.730Z,7.88
2022-12-18T21:57:13.313Z,7.23
2022-12-18T21:59:42.362Z,7.95
2022-12-18T22:02:19.818Z,7.38
2022-12-18T22:04:47.619Z,7.45
2022-12-18T22:07:16.957Z,7.53
2022-12-18T22:09:44.120Z,7.50
2022-12-18T22:12:13.236Z,7.10
2022-12-18T22:14:40.311Z,7.80
2022-12-18T22:17:07.368Z,9.00
2022-12-18T22:19:41.051Z,7.60
2022-12-18T22:22:10.059Z,7.60
2022-12-18T22:24:37.164Z,6.78
2022-12-18T22:27:04.258Z,6.85
2022-12-18T22:29:49.812Z,7.60
2022-12-18T22:32:17.811Z,5.60
2022-12-18T22:35:03.087Z,5.70
2022-12-18T22:37:33.201Z,6.03
2022-12-18T22:40:03.274Z,6.78
2022-12-18T22:42:31.569Z,7.18
2022-12-18T22:45:00.148Z,7.30
2022-12-18T22:47:30.170Z,7.40
2022-12-18T22:49:58.524Z,7.45
2022-12-18T22:52:25.853Z,7.22
2022-12-18T22:54:54.077Z,7.00
2022-12-18T22:57:22.756Z,7.03
2022-12-18T22:59:50.457Z,7.13
2022-12-18T23:02:18.696Z,8.20
2022-12-18T23:04:45.952Z,7.90
2022-12-18T23:07:13.154Z,7.20
2022-12-18T23:09:40.302Z,6.63
2022-12-18T23:12:07.856Z,7.13
2022-12-18T23:14:35.185Z,6.72
2022-12-18T23:17:02.231Z,6.93
2022-12-18T23:19:29.267Z,6.40
2022-12-18T23:21:58.575Z,6.80
2022-12-18T23:24:26.065Z,6.50
2022-12-18T23:26:53.179Z,6.18
2022-12-18T23:29:20.639Z,7.32
2022-12-18T23:31:47.742Z,6.75
2022-12-18T23:34:14.881Z,6.13
2022-12-18T23:36:46.446Z,6.83
2022-12-18T23:39:18.800Z,6.38
2022-12-18T23:41:59.862Z,6.78
2022-12-18T23:44:27.207Z,6.70
2022-12-18T23:46:54.619Z,7.45
2022-12-18T23:49:22.297Z,6.40
2022-12-18T23:51:49.359Z,5.68
2022-12-18T23:54:16.438Z,5.82
2022-12-18T23:56:43.654Z,5.32
2022-12-18T23:59:10.792Z,5.78
